Airfield :
LOGIN :

Register | Disclaimer

   EN    FR    IT 

 










Legend :    VFR   Marginal VFR   IFR   Intensive IFR   Very Intensive IFR
Visi :
Ceiling :
>= 8 km
>= 3000ft
5 to 8 km
1000 to 3000 ft
1500m to 5 km
500 to 1000 ft
800 to 1500m
200 to 500 ft
< 800m
< 200 ft
Symbols :   Thunderstorms  Fog  Heavy snow  Heavy precipitations  Wind > 20 kt
SIGMETs :     Misc.  Thunderstorms  Icing  Turbulence  Mountain Waves  Volcanic Ashes






- Airport Elevation : 1084 ft
- IATA code : EPL


LFSG - Épinal-Mirecourt

CURRENT METAR :
  • 211600Z AUTO 25011KT 9999 FEW044 OVC086 20/10 Q1007

EXPIRED METARs :
  • 211530Z AUTO 22005KT 190V260 9999 SCT048 BKN060 BKN076 19/11 Q1007
  • 211500Z AUTO 23005KT 180V280 9999 SCT042 BKN056 BKN074 19/11 Q1007
  • 211430Z AUTO 25005KT 220V290 9999 SCT040 BKN048 BKN056 19/11 Q1008
  • 211400Z AUTO 24006KT 200V330 9999 SCT041 SCT048 BKN210 19/11 Q1008
  • 211330Z AUTO 26006KT 210V320 9999 SCT039 BKN076 BKN210 19/11 Q1008
  • 211300Z AUTO 27008KT 9999 BKN032 BKN042 BKN190 18/11 Q1008
  • 211230Z AUTO 21007KT 9999 FEW029/// BKN078/// ///TCU 18/12 Q1008
  • 211200Z AUTO 24009KT 9999 SCT028 SCT034 OVC068 17/11 Q1008
  • 211130Z AUTO 25006KT 210V280 9999 FEW031 SCT045 BKN180 18/12 Q1008

TAF N/A



MET'MAP, your aeronautical weather chart ! - Copyright ORBIFLY December 2007 - Disclaimer

ORBIFLY MET'MAP TEAM :

Programming & Development : Alexandra Zaïnal
Original concept : Baudouin d'Aumeries
Technical & hardware support : Manuel Goepfert
Assistance : Marc-Olivier Méhu




SOURCES & CREDITS :

   NOAA